createdAt,value
2018-03-08T00:01:46.707Z,6.00
2018-03-08T00:04:14.907Z,6.00
2018-03-08T00:06:42.367Z,6.00
2018-03-08T00:09:10.563Z,6.10
2018-03-08T00:11:37.997Z,6.10
2018-03-08T00:14:05.453Z,6.10
2018-03-08T00:16:34.401Z,6.20
2018-03-08T00:19:01.843Z,6.20
2018-03-08T00:21:29.324Z,6.10
2018-03-08T00:23:56.754Z,6.10
2018-03-08T00:26:24.183Z,6.20
2018-03-08T00:28:51.646Z,6.10
2018-03-08T00:31:19.088Z,6.00
2018-03-08T00:33:47.299Z,5.90
2018-03-08T00:36:14.753Z,5.90
2018-03-08T00:38:42.955Z,5.70
2018-03-08T00:41:10.394Z,5.60
2018-03-08T00:43:38.612Z,5.60
2018-03-08T00:46:06.044Z,5.50
2018-03-08T00:48:34.234Z,5.40
2018-03-08T00:51:01.706Z,5.50
2018-03-08T00:53:29.917Z,5.40
2018-03-08T00:55:58.163Z,5.50
2018-03-08T00:58:27.115Z,5.30
2018-03-08T01:00:54.960Z,5.30
2018-03-08T01:03:22.403Z,5.20
2018-03-08T01:05:50.247Z,5.20
2018-03-08T01:08:18.434Z,5.10
2018-03-08T01:10:46.268Z,5.00
2018-03-08T01:13:14.100Z,5.00
2018-03-08T01:15:42.307Z,4.90
2018-03-08T01:18:09.731Z,4.70
2018-03-08T01:20:37.185Z,4.60
2018-03-08T01:23:04.611Z,4.60
2018-03-08T01:25:32.047Z,4.50
2018-03-08T01:27:59.511Z,4.30
2018-03-08T01:30:27.349Z,4.10
2018-03-08T01:32:55.550Z,4.20
2018-03-08T01:35:23.746Z,4.30
2018-03-08T01:37:51.191Z,4.20
2018-03-08T01:40:19.374Z,4.00
2018-03-08T01:42:46.816Z,3.90
2018-03-08T01:45:14.251Z,3.60
2018-03-08T01:47:41.697Z,3.70
2018-03-08T01:50:09.134Z,3.50
2018-03-08T01:52:37.343Z,3.50
2018-03-08T01:55:05.174Z,3.50
2018-03-08T01:57:32.999Z,3.80
2018-03-08T02:00:00.844Z,3.60
2018-03-08T02:02:28.284Z,3.50
2018-03-08T02:04:55.724Z,3.50
2018-03-08T02:07:23.144Z,3.60
2018-03-08T02:09:50.587Z,3.40
2018-03-08T02:12:18.016Z,3.60
2018-03-08T02:14:46.219Z,3.50
2018-03-08T02:17:13.648Z,3.60
2018-03-08T02:19:41.083Z,3.90
2018-03-08T02:22:08.572Z,3.60
2018-03-08T02:24:36.074Z,3.20
2018-03-08T02:27:04.394Z,3.00
2018-03-08T02:29:31.984Z,3.10
2018-03-08T02:32:00.621Z,2.90
2018-03-08T02:34:28.886Z,2.70
2018-03-08T02:36:57.136Z,2.50
2018-03-08T02:39:24.649Z,2.60
2018-03-08T02:41:52.978Z,2.50
2018-03-08T02:44:20.940Z,2.60
2018-03-08T02:46:48.516Z,2.50
2018-03-08T02:49:16.101Z,2.60
2018-03-08T02:51:44.071Z,2.40
2018-03-08T02:54:11.676Z,2.40
2018-03-08T02:56:39.946Z,2.40
2018-03-08T02:59:07.444Z,2.20
2018-03-08T03:01:35.408Z,2.20
2018-03-08T03:04:02.921Z,2.40
2018-03-08T03:06:31.253Z,2.20
2018-03-08T03:08:58.823Z,2.10
2018-03-08T03:11:27.077Z,2.00
2018-03-08T03:16:23.888Z,2.30
2018-03-08T03:18:51.461Z,2.20
2018-03-08T03:21:18.954Z,2.20
2018-03-08T03:23:46.453Z,2.20
2018-03-08T03:26:14.698Z,2.10
2018-03-08T03:28:42.247Z,2.20
2018-03-08T03:31:10.521Z,2.20
2018-03-08T03:33:38.844Z,2.20
2018-03-08T03:36:06.355Z,2.20
2018-03-08T03:38:34.682Z,2.20
2018-03-08T03:41:02.669Z,2.10
2018-03-08T03:43:30.637Z,2.00
2018-03-08T03:45:58.529Z,2.00
2018-03-08T03:48:26.015Z,2.00
2018-03-08T03:50:53.507Z,2.10
2018-03-08T03:53:20.992Z,2.10
2018-03-08T03:55:49.239Z,1.90
2018-03-08T03:58:17.127Z,1.90
2018-03-08T04:00:44.704Z,1.90
2018-03-08T04:03:13.046Z,1.80
2018-03-08T04:05:40.626Z,1.60
2018-03-08T04:08:08.208Z,1.60
2018-03-08T04:10:35.718Z,1.50
2018-03-08T04:13:03.206Z,1.60
2018-03-08T04:15:30.726Z,1.50
2018-03-08T04:17:58.224Z,1.50
2018-03-08T04:20:25.788Z,1.60
2018-03-08T04:22:54.419Z,1.70
2018-03-08T04:25:21.986Z,1.60
2018-03-08T04:27:49.496Z,1.30
2018-03-08T04:30:17.384Z,1.70
2018-03-08T04:32:44.879Z,1.80
2018-03-08T04:35:13.199Z,1.90
2018-03-08T04:37:41.092Z,1.90
2018-03-08T04:40:09.720Z,1.90
2018-03-08T04:42:37.207Z,1.80
2018-03-08T04:45:04.709Z,1.80
2018-03-08T04:47:32.587Z,1.90
2018-03-08T04:50:00.163Z,1.80
2018-03-08T04:52:27.662Z,1.70
2018-03-08T04:54:55.156Z,1.90
2018-03-08T04:57:23.418Z,2.00
2018-03-08T04:59:50.922Z,1.80
2018-03-08T05:02:24.277Z,1.70
2018-03-08T05:04:51.783Z,1.70
2018-03-08T05:07:20.413Z,2.00
2018-03-08T05:09:48.287Z,2.00
2018-03-08T05:12:16.539Z,1.90
2018-03-08T05:14:44.890Z,1.90
2018-03-08T05:17:13.234Z,1.70
2018-03-08T05:19:41.579Z,1.70
2018-03-08T05:22:09.168Z,1.90
2018-03-08T05:24:36.665Z,1.90
2018-03-08T05:27:05.383Z,1.90
2018-03-08T05:29:32.970Z,2.00
2018-03-08T05:32:01.662Z,1.80
2018-03-08T05:34:29.182Z,1.90
2018-03-08T05:36:56.751Z,2.10
2018-03-08T05:39:24.243Z,2.00
2018-03-08T05:41:51.738Z,2.00
2018-03-08T05:44:19.215Z,2.10
2018-03-08T05:46:46.709Z,2.10
2018-03-08T05:49:14.575Z,2.10
2018-03-08T05:51:42.140Z,1.90
2018-03-08T05:54:11.705Z,1.90
2018-03-08T05:59:08.200Z,2.20
2018-03-08T06:01:35.780Z,2.20
2018-03-08T06:04:03.280Z,2.10
2018-03-08T06:06:30.778Z,2.30
2018-03-08T06:08:58.270Z,2.00
2018-03-08T06:11:27.280Z,2.00
2018-03-08T06:16:23.781Z,2.20
2018-03-08T06:18:51.362Z,2.20
2018-03-08T06:21:18.882Z,2.40
2018-03-08T06:23:47.212Z,2.40
2018-03-08T06:26:14.790Z,2.40
2018-03-08T06:28:42.288Z,2.30
2018-03-08T06:31:10.181Z,2.40
2018-03-08T06:33:39.260Z,2.50
2018-03-08T06:36:06.775Z,2.60
2018-03-08T06:38:34.660Z,2.70
2018-03-08T06:41:03.016Z,2.60
2018-03-08T06:43:30.587Z,2.70
2018-03-08T06:45:58.157Z,2.60
2018-03-08T06:48:26.445Z,2.70
2018-03-08T06:50:54.034Z,2.90
2018-03-08T06:53:21.945Z,4.50
2018-03-08T06:55:50.233Z,5.10
2018-03-08T06:58:17.797Z,4.90
2018-03-08T07:00:45.295Z,4.50
2018-03-08T07:03:12.787Z,4.30
2018-03-08T07:05:40.293Z,4.50
2018-03-08T07:08:08.627Z,4.80
2018-03-08T07:10:36.132Z,5.40
2018-03-08T07:13:04.464Z,6.60
2018-03-08T07:15:32.822Z,7.40
2018-03-08T07:18:01.099Z,7.50
2018-03-08T07:20:29.453Z,7.70
2018-03-08T07:22:57.357Z,8.20
2018-03-08T07:25:24.839Z,8.20
2018-03-08T07:27:53.528Z,7.50
2018-03-08T07:30:21.879Z,6.70
2018-03-08T07:32:49.399Z,6.80
2018-03-08T07:35:16.946Z,7.00
2018-03-08T07:37:44.449Z,6.80
2018-03-08T07:40:12.719Z,7.50
2018-03-08T07:42:40.987Z,9.20
2018-03-08T07:45:08.489Z,10.00
2018-03-08T07:50:05.209Z,8.80
2018-03-08T07:52:33.540Z,8.10
2018-03-08T07:55:01.884Z,7.80
2018-03-08T07:57:29.400Z,7.40
2018-03-08T07:59:57.654Z,7.20
2018-03-08T08:02:25.144Z,7.10
2018-03-08T08:05:04.913Z,6.80
2018-03-08T08:07:44.119Z,6.90
2018-03-08T08:10:11.624Z,7.00
2018-03-08T08:12:39.525Z,7.10
2018-03-08T08:15:07.800Z,7.40
2018-03-08T08:17:36.132Z,7.60
2018-03-08T08:20:04.061Z,7.60
2018-03-08T08:22:32.339Z,7.60
2018-03-08T08:24:59.913Z,7.70
2018-03-08T08:27:27.489Z,7.60
2018-03-08T08:29:55.750Z,7.60
2018-03-08T08:32:24.017Z,7.60
2018-03-08T08:34:51.983Z,7.40
2018-03-08T08:37:19.552Z,7.30
2018-03-08T08:39:47.543Z,7.40
2018-03-08T08:42:15.045Z,7.50
2018-03-08T08:44:42.616Z,7.40
2018-03-08T08:47:10.193Z,7.40
2018-03-08T08:49:38.499Z,7.40
2018-03-08T08:52:06.830Z,7.40
2018-03-08T08:54:34.408Z,7.30
2018-03-08T08:57:01.918Z,7.40
2018-03-08T08:59:29.413Z,7.40
2018-03-08T09:01:57.298Z,7.50
2018-03-08T09:04:24.848Z,7.50
2018-03-08T09:06:52.417Z,7.50
2018-03-08T09:09:20.695Z,7.50
2018-03-08T09:11:48.947Z,7.60
2018-03-08T09:14:16.428Z,7.60
2018-03-08T09:16:43.917Z,7.80
2018-03-08T09:19:11.410Z,8.00
2018-03-08T09:21:38.935Z,8.20
2018-03-08T09:24:06.522Z,8.20
2018-03-08T09:26:34.009Z,8.20
2018-03-08T09:29:02.269Z,8.40
2018-03-08T09:31:29.834Z,8.50
2018-03-08T09:33:57.352Z,8.80
2018-03-08T09:36:24.904Z,9.00
2018-03-08T09:38:53.168Z,9.10
2018-03-08T09:41:20.644Z,9.10
2018-03-08T09:43:48.267Z,9.00
2018-03-08T09:46:15.731Z,9.30
2018-03-08T09:48:43.232Z,9.40
2018-03-08T09:51:11.111Z,9.60
2018-03-08T09:53:38.650Z,9.70
2018-03-08T09:56:06.139Z,9.80
2018-03-08T09:58:34.037Z,9.80
2018-03-08T10:01:01.600Z,9.60
2018-03-08T10:03:29.130Z,9.40
2018-03-08T10:05:56.689Z,9.50
2018-03-08T10:08:24.289Z,9.60
2018-03-08T10:10:51.874Z,9.30
2018-03-08T10:13:19.839Z,9.60
2018-03-08T10:15:47.343Z,9.30
2018-03-08T10:18:14.830Z,9.30
2018-03-08T10:20:43.075Z,9.00
2018-03-08T10:23:10.552Z,9.00
2018-03-08T10:25:38.799Z,8.80
2018-03-08T10:28:06.286Z,8.90
2018-03-08T10:30:34.048Z,8.90
2018-03-08T10:33:01.547Z,8.90
2018-03-08T10:35:29.117Z,9.00
2018-03-08T10:37:57.080Z,9.10
2018-03-08T10:42:52.563Z,9.50
2018-03-08T10:45:20.101Z,9.40
2018-03-08T10:47:47.652Z,9.70
2018-03-08T10:50:15.160Z,10.10
2018-03-08T10:52:43.036Z,10.40
2018-03-08T10:55:10.940Z,10.40
2018-03-08T10:57:38.517Z,10.70
2018-03-08T11:00:06.495Z,11.00
2018-03-08T11:02:34.873Z,11.10
2018-03-08T11:05:04.953Z,10.90
2018-03-08T11:07:32.917Z,11.50
2018-03-08T11:10:00.418Z,12.00
2018-03-08T11:12:28.738Z,12.50
2018-03-08T11:14:57.020Z,11.30
2018-03-08T11:17:25.346Z,11.50
2018-03-08T11:19:53.717Z,11.70
2018-03-08T11:22:22.020Z,11.60
2018-03-08T11:24:50.303Z,11.80
2018-03-08T11:27:18.663Z,11.70
2018-03-08T11:29:46.202Z,11.50
2018-03-08T11:32:13.707Z,11.70
2018-03-08T11:34:41.283Z,11.10
2018-03-08T11:37:09.559Z,11.00
2018-03-08T11:39:37.899Z,11.20
2018-03-08T11:42:05.818Z,11.50
2018-03-08T11:44:33.772Z,11.70
2018-03-08T11:47:02.212Z,11.60
2018-03-08T11:49:29.580Z,11.60
2018-03-08T11:51:57.137Z,11.10
2018-03-08T11:54:24.632Z,11.00
2018-03-08T11:56:52.137Z,10.70
2018-03-08T11:59:19.703Z,10.70
2018-03-08T12:01:47.289Z,10.30
2018-03-08T12:04:15.249Z,10.40
2018-03-08T12:06:42.820Z,10.40
2018-03-08T12:09:10.327Z,10.40
2018-03-08T12:11:37.820Z,10.30
2018-03-08T12:14:06.154Z,10.40
2018-03-08T12:16:33.654Z,10.50
2018-03-08T12:19:01.140Z,10.50
2018-03-08T12:21:28.748Z,10.40
2018-03-08T12:23:56.296Z,9.90
2018-03-08T12:26:23.894Z,9.80
2018-03-08T12:28:51.503Z,9.90
2018-03-08T12:31:19.103Z,9.80
2018-03-08T12:33:46.674Z,9.80
2018-03-08T12:36:14.245Z,9.80
2018-03-08T12:38:42.145Z,9.80
2018-03-08T12:41:10.394Z,9.80
2018-03-08T12:43:38.381Z,9.80
2018-03-08T12:46:05.870Z,9.80
2018-03-08T12:48:33.430Z,9.90
2018-03-08T12:51:00.949Z,10.00
2018-03-08T12:53:28.512Z,10.00
2018-03-08T12:55:56.022Z,10.00
2018-03-08T12:58:23.912Z,10.00
2018-03-08T13:00:51.395Z,10.00
2018-03-08T13:03:18.883Z,10.00
2018-03-08T13:05:47.133Z,10.00
2018-03-08T13:08:15.113Z,10.00
2018-03-08T13:10:43.092Z,10.00
2018-03-08T13:13:10.680Z,10.00
2018-03-08T13:15:38.182Z,10.00
2018-03-08T13:18:05.771Z,9.90
2018-03-08T13:20:33.256Z,9.90
2018-03-08T13:23:00.735Z,9.80
2018-03-08T13:25:28.229Z,9.80
2018-03-08T13:27:55.761Z,9.80
2018-03-08T13:30:23.336Z,9.90
2018-03-08T13:32:50.917Z,10.00
2018-03-08T13:35:19.219Z,10.10
2018-03-08T13:37:46.727Z,10.20
2018-03-08T13:40:14.215Z,10.30
2018-03-08T13:42:41.708Z,10.30
2018-03-08T13:45:09.292Z,10.20
2018-03-08T13:47:37.188Z,10.20
2018-03-08T13:50:04.694Z,10.10
2018-03-08T13:52:32.972Z,10.20
2018-03-08T13:55:01.295Z,10.20
2018-03-08T13:57:28.818Z,10.10
2018-03-08T13:59:57.149Z,10.20
2018-03-08T14:02:24.664Z,10.20
2018-03-08T14:04:52.168Z,10.20
2018-03-08T14:07:19.686Z,10.10
2018-03-08T14:09:48.715Z,10.10
2018-03-08T14:12:16.971Z,10.00
2018-03-08T14:14:44.534Z,10.00
2018-03-08T14:17:12.459Z,10.00
2018-03-08T14:19:40.335Z,9.80
2018-03-08T14:22:08.596Z,9.80
2018-03-08T14:24:36.087Z,9.70
2018-03-08T14:27:04.420Z,9.70
2018-03-08T14:29:32.385Z,9.60
2018-03-08T14:31:59.898Z,9.30
2018-03-08T14:34:27.421Z,9.10
2018-03-08T14:36:54.914Z,8.90
2018-03-08T14:39:22.872Z,8.80
2018-03-08T14:41:50.360Z,8.70
2018-03-08T14:44:17.913Z,8.60
2018-03-08T14:46:45.784Z,8.50
2018-03-08T14:49:13.341Z,8.40
2018-03-08T14:51:40.914Z,8.40
2018-03-08T14:54:09.180Z,8.40
2018-03-08T14:56:36.780Z,8.30
2018-03-08T14:59:04.369Z,8.30
2018-03-08T15:01:32.360Z,8.30
2018-03-08T15:04:00.327Z,8.40
2018-03-08T15:06:27.844Z,8.30
2018-03-08T15:08:55.386Z,8.30
2018-03-08T15:11:23.241Z,8.30
2018-03-08T15:13:50.739Z,8.30
2018-03-08T15:16:18.618Z,8.30
2018-03-08T15:18:46.110Z,8.30
2018-03-08T15:21:13.592Z,8.30
2018-03-08T15:23:41.874Z,8.30
2018-03-08T15:26:09.424Z,8.20
2018-03-08T15:28:36.955Z,8.20
2018-03-08T15:31:04.439Z,8.20
2018-03-08T15:33:33.101Z,8.20
2018-03-08T15:36:01.508Z,8.20
2018-03-08T15:38:29.017Z,8.10
2018-03-08T15:40:56.581Z,8.00
2018-03-08T15:43:24.175Z,7.90
2018-03-08T15:45:51.677Z,7.80
2018-03-08T15:48:19.636Z,7.70
2018-03-08T15:50:47.897Z,7.60
2018-03-08T15:53:15.383Z,7.60
2018-03-08T15:55:43.268Z,7.70
2018-03-08T15:58:10.784Z,7.60
2018-03-08T16:00:38.296Z,7.60
2018-03-08T16:03:05.780Z,7.50
2018-03-08T16:05:34.117Z,7.50
2018-03-08T16:11:22.164Z,7.40
2018-03-08T16:13:50.530Z,7.40
2018-03-08T16:16:18.039Z,7.40
2018-03-08T16:18:45.623Z,7.40
2018-03-08T16:21:13.125Z,7.20
2018-03-08T16:23:40.612Z,7.00
2018-03-08T16:26:08.178Z,6.90
2018-03-08T16:28:35.691Z,6.60
2018-03-08T16:31:03.174Z,6.40
2018-03-08T16:33:30.835Z,6.20
2018-03-08T16:35:58.489Z,6.00
2018-03-08T16:38:27.055Z,5.90
2018-03-08T16:40:55.093Z,5.90
2018-03-08T16:43:22.619Z,5.70
2018-03-08T16:45:50.106Z,5.70
2018-03-08T16:48:17.684Z,5.60
2018-03-08T16:50:45.175Z,5.50
2018-03-08T16:53:12.691Z,5.40
2018-03-08T16:55:40.201Z,5.40
2018-03-08T16:58:08.455Z,5.30
2018-03-08T17:00:36.353Z,5.30
2018-03-08T17:03:04.674Z,5.20
2018-03-08T17:05:32.192Z,5.30
2018-03-08T17:07:59.749Z,5.10
2018-03-08T17:10:27.327Z,5.10
2018-03-08T17:12:54.905Z,5.10
2018-03-08T17:15:23.236Z,5.10
2018-03-08T17:17:50.769Z,5.10
2018-03-08T17:20:19.033Z,5.10
2018-03-08T17:22:46.515Z,5.10
2018-03-08T17:25:14.020Z,5.00
2018-03-08T17:27:41.593Z,5.00
2018-03-08T17:30:09.088Z,5.00
2018-03-08T17:32:36.567Z,5.00
2018-03-08T17:35:04.135Z,5.00
2018-03-08T17:37:31.702Z,5.00
2018-03-08T17:39:59.412Z,5.00
2018-03-08T17:42:27.674Z,5.00
2018-03-08T17:44:55.193Z,5.00
2018-03-08T17:47:23.139Z,5.10
2018-03-08T17:49:51.055Z,5.00
2018-03-08T17:52:18.560Z,5.00
2018-03-08T17:54:46.049Z,5.00
2018-03-08T17:57:13.544Z,5.10
2018-03-08T17:59:41.822Z,4.90
2018-03-08T18:02:09.303Z,4.90
2018-03-08T18:04:37.571Z,4.80
2018-03-08T18:07:05.473Z,4.70
2018-03-08T18:09:33.368Z,4.80
2018-03-08T18:12:01.613Z,4.80
2018-03-08T18:14:29.206Z,4.70
2018-03-08T18:16:57.573Z,4.90
2018-03-08T18:19:25.160Z,4.80
2018-03-08T18:21:53.053Z,4.90
2018-03-08T18:24:21.399Z,4.80
2018-03-08T18:26:48.950Z,4.90
2018-03-08T18:29:16.435Z,4.90
2018-03-08T18:31:44.005Z,4.90
2018-03-08T18:34:11.513Z,5.00
2018-03-08T18:36:39.848Z,5.00
2018-03-08T18:39:07.351Z,5.00
2018-03-08T18:41:35.249Z,4.90
2018-03-08T18:44:03.521Z,4.90
2018-03-08T18:46:31.018Z,4.90
2018-03-08T18:48:59.349Z,4.90
2018-03-08T18:51:26.857Z,4.90
2018-03-08T18:53:55.119Z,4.90
2018-03-08T18:56:22.610Z,4.90
2018-03-08T18:58:50.954Z,5.00
2018-03-08T19:01:18.481Z,4.80
2018-03-08T19:03:46.732Z,4.90
2018-03-08T19:06:14.215Z,4.80
2018-03-08T19:08:41.691Z,4.90
2018-03-08T19:11:09.278Z,4.90
2018-03-08T19:13:37.537Z,4.80
2018-03-08T19:16:05.029Z,4.80
2018-03-08T19:18:34.441Z,4.80
2018-03-08T19:21:02.453Z,4.80
2018-03-08T19:23:30.038Z,4.70
2018-03-08T19:25:57.544Z,4.80
2018-03-08T19:28:25.038Z,4.80
2018-03-08T19:30:53.376Z,4.60
2018-03-08T19:33:20.876Z,4.60
2018-03-08T19:35:49.149Z,4.50
2018-03-08T19:38:16.712Z,4.60
2018-03-08T19:40:44.299Z,4.50
2018-03-08T19:43:12.263Z,4.50
2018-03-08T19:45:39.765Z,4.40
2018-03-08T19:48:08.117Z,4.50
2018-03-08T19:50:35.672Z,4.60
2018-03-08T19:53:03.261Z,4.70
2018-03-08T19:55:30.763Z,4.70
2018-03-08T19:57:58.273Z,4.70
2018-03-08T20:00:25.752Z,4.60
2018-03-08T20:02:53.257Z,4.60
2018-03-08T20:05:21.520Z,4.60
2018-03-08T20:07:49.850Z,4.60
2018-03-08T20:10:18.130Z,4.50
2018-03-08T20:12:45.700Z,4.70
2018-03-08T20:15:13.357Z,4.60
2018-03-08T20:17:40.944Z,4.50
2018-03-08T20:20:08.480Z,4.40
2018-03-08T20:22:35.997Z,4.40
2018-03-08T20:25:03.590Z,4.30
2018-03-08T20:27:31.571Z,4.50
2018-03-08T20:29:59.146Z,4.50
2018-03-08T20:32:27.167Z,4.50
2018-03-08T20:34:55.270Z,4.30
2018-03-08T20:37:22.784Z,4.30
2018-03-08T20:39:50.271Z,4.20
2018-03-08T20:42:17.840Z,4.00
2018-03-08T20:44:45.451Z,3.90
2018-03-08T20:47:12.958Z,3.70
2018-03-08T20:49:40.905Z,3.60
2018-03-08T20:52:08.529Z,4.00
2018-03-08T20:54:36.020Z,4.20
2018-03-08T20:57:03.538Z,3.70
2018-03-08T20:59:31.086Z,4.20
2018-03-08T21:01:59.356Z,4.30
2018-03-08T21:04:26.834Z,4.40
2018-03-08T21:06:54.359Z,4.30
2018-03-08T21:09:21.871Z,4.00
2018-03-08T21:11:49.436Z,4.10
2018-03-08T21:14:17.020Z,3.70
2018-03-08T21:16:45.365Z,3.50
2018-03-08T21:19:12.939Z,3.90
2018-03-08T21:21:40.524Z,3.60
2018-03-08T21:24:08.428Z,3.50
2018-03-08T21:26:36.007Z,3.40
2018-03-08T21:29:04.305Z,3.20
2018-03-08T21:31:32.577Z,2.90
2018-03-08T21:34:00.119Z,2.80
2018-03-08T21:36:27.871Z,2.80
2018-03-08T21:38:55.768Z,3.30
2018-03-08T21:41:23.337Z,3.10
2018-03-08T21:43:50.923Z,3.00
2018-03-08T21:46:18.453Z,2.80
2018-03-08T21:48:45.952Z,2.90
2018-03-08T21:51:13.439Z,3.50
2018-03-08T21:53:40.923Z,3.20
2018-03-08T21:56:08.835Z,3.00
2018-03-08T21:58:36.335Z,3.00
2018-03-08T22:01:04.650Z,3.30
2018-03-08T22:03:32.170Z,2.90
2018-03-08T22:06:00.078Z,3.00
2018-03-08T22:08:27.583Z,3.00
2018-03-08T22:10:55.080Z,3.00
2018-03-08T22:13:22.583Z,2.80
2018-03-08T22:15:50.152Z,2.60
2018-03-08T22:18:18.082Z,2.70
2018-03-08T22:20:46.041Z,2.40
2018-03-08T22:23:13.568Z,2.20
2018-03-08T22:25:41.841Z,2.30
2018-03-08T22:28:09.739Z,2.30
2018-03-08T22:30:37.716Z,2.30
2018-03-08T22:33:05.295Z,2.20
2018-03-08T22:35:33.276Z,2.00
2018-03-08T22:38:00.777Z,2.10
2018-03-08T22:40:28.370Z,2.10
2018-03-08T22:42:56.716Z,2.20
2018-03-08T22:45:24.243Z,2.00
2018-03-08T22:47:52.496Z,2.10
2018-03-08T22:50:20.067Z,2.10
2018-03-08T22:52:47.635Z,2.00
2018-03-08T22:55:15.142Z,1.90
2018-03-08T22:57:42.631Z,1.80
2018-03-08T23:00:11.709Z,1.80
2018-03-08T23:02:39.215Z,1.90
2018-03-08T23:05:07.593Z,1.90
2018-03-08T23:07:35.559Z,1.90
2018-03-08T23:10:03.564Z,1.90
2018-03-08T23:12:31.133Z,1.80
2018-03-08T23:14:58.721Z,2.20
2018-03-08T23:17:26.203Z,2.20
2018-03-08T23:19:53.696Z,2.30
2018-03-08T23:22:21.953Z,2.50
2018-03-08T23:24:49.521Z,3.00
2018-03-08T23:27:17.418Z,2.80
2018-03-08T23:29:45.014Z,2.40
2018-03-08T23:32:13.327Z,2.50
2018-03-08T23:34:40.889Z,2.40
2018-03-08T23:37:08.411Z,2.40
2018-03-08T23:39:35.971Z,1.90
2018-03-08T23:42:03.937Z,2.30
2018-03-08T23:44:32.572Z,2.70
2018-03-08T23:47:00.927Z,2.50
2018-03-08T23:49:28.505Z,2.20
2018-03-08T23:51:56.089Z,1.90
2018-03-08T23:54:23.581Z,1.80
2018-03-08T23:56:51.134Z,2.60
2018-03-08T23:59:18.730Z,2.50
